Latest Weather Observations for Willis Island

IDQ60801

Issued at 12:31 pm EST Wednesday 5 August 2015 (issued every 30 minutes, with the page automatically refreshed every 10 minutes)

About weather observations | Map of weather stations | Latest weather observations for QLD | Other Formats
Station Details ID: 200283 Name: WILLIS ISLAND Lat: -16.29 Lon: 149.97 Height: 9.29 m
Data from the previous 72 hours. | See also: Recent months at Willis Island
Date/Time
EST
Temp
°C
App
Temp
°C
Dew
Point
Rel
Hum
%
Delta-T
°C
Wind Press
QNH
hPa
Press
MSL
hPa
Rain
since 9 am
mm
Dir
 
Spd
km/h
Gust
km/h
Spd
kts
Gust
kts
05/12:00pm 25.7 22.5 16.4 56 5.7 SSE 28 35 15 19 1015.0 1015.0 0.0
05/11:30am 25.8 22.2 16.2 55 5.9 SE 30 35 16 19 1015.2 - 0.0
05/11:00am 25.7 22.2 16.4 56 5.7 SE 30 35 16 19 1015.3 - 0.0
05/10:30am 25.6 21.9 16.1 55 5.8 SE 30 33 16 18 1015.6 - 0.0
05/10:00am 25.6 22.5 17.4 60 5.1 SE 30 35 16 19 1016.0 - 0.0
05/09:30am 25.2 21.0 15.8 56 5.7 SE 32 37 17 20 1016.0 - 0.0
05/09:00am 24.8 21.1 17.0 62 4.8 SE 32 35 17 19 1015.9 1015.9 0.0
05/08:30am 24.7 20.5 15.8 57 5.4 SE 32 37 17 20 1015.5 - 0.0
05/08:00am 24.0 20.2 15.7 59 5.0 SE 30 37 16 20 1015.1 - 0.0
05/07:30am 23.9 20.6 17.1 65 4.2 SE 30 35 16 19 1014.7 - 0.0
05/07:00am 23.4 20.4 16.7 66 4.1 SE 28 33 15 18 1014.5 - 0.0
05/06:30am 23.1 20.3 16.4 66 4.1 ESE 26 32 14 17 1014.2 - 0.0
05/06:00am 23.2 21.4 17.0 68 3.8 SE 22 26 12 14 1014.0 1014.0 0.0
05/05:30am 23.1 21.1 16.5 66 4.0 ESE 22 28 12 15 1013.6 - 0.0
05/05:00am 22.9 20.6 16.7 68 3.8 SE 24 30 13 16 1013.4 - 0.0
05/04:30am 23.2 21.2 16.5 66 4.1 ESE 22 28 12 15 1013.3 - 0.0
05/04:00am 23.1 21.1 16.4 66 4.1 SE 22 28 12 15 1013.3 - 0.0
05/03:30am 23.0 21.0 16.4 66 4.0 SE 22 28 12 15 1013.3 - 0.0
05/03:00am 23.0 21.0 16.4 66 4.0 ESE 22 28 12 15 1013.4 1013.4 0.0
05/02:30am 23.0 20.8 16.8 68 3.8 ESE 24 26 13 14 1013.6 - 0.0
05/02:00am 23.1 21.0 17.1 69 3.7 ESE 24 26 13 14 1013.7 - 0.0
05/01:30am 23.0 20.8 16.8 68 3.8 SSE 24 28 13 15 1014.0 - 0.0
05/01:00am 23.0 20.5 17.2 70 3.6 SSE 26 30 14 16 1014.3 - 0.0
05/12:30am 23.1 21.1 17.3 70 3.6 SSE 24 28 13 15 1014.7 - 0.0
05/12:00am 22.9 21.0 16.7 68 3.8 SE 22 28 12 15 1014.8 1014.8 0.0
 
Date/Time
EST
Temp
°C
App
Temp
°C
Dew
Point
Rel
Hum
%
Delta-T
°C
Wind Press
QNH
hPa
Press
MSL
hPa
Rain
since 9 am
mm
Dir
 
Spd
km/h
Gust
km/h
Spd
kts
Gust
kts
04/11:30pm 23.0 21.4 16.4 66 4.0 SE 20 26 11 14 1014.8 - 0.0
04/11:00pm 23.1 21.0 16.2 65 4.2 SE 22 26 12 14 1015.0 - 0.0
04/10:30pm 23.1 21.0 16.2 65 4.2 SE 22 30 12 16 1015.2 - 0.0
04/10:00pm 23.1 20.0 15.6 62 4.5 SE 26 30 14 16 1015.3 - 0.0
04/09:30pm 22.9 19.4 14.4 58 5.0 SSE 26 30 14 16 1015.3 - 0.0
04/09:00pm 23.1 19.9 15.2 61 4.7 SSE 26 32 14 17 1015.3 1015.3 0.0
04/08:30pm 23.2 18.8 15.2 60 4.8 SSE 32 37 17 20 1015.2 - 0.0
04/08:00pm 23.3 18.5 14.5 57 5.2 SSE 33 39 18 21 1015.1 - 0.0
04/07:30pm 23.5 18.8 14.9 58 5.1 SSE 33 39 18 21 1014.8 - 0.0
04/07:00pm 23.5 18.3 14.5 57 5.3 SSE 35 43 19 23 1014.5 - 0.0
04/06:30pm 23.6 19.1 15.4 60 4.9 SSE 33 41 18 22 1014.2 - 0.0
04/06:00pm 23.6 18.7 15.2 59 5.0 SSE 35 41 19 22 1013.9 1013.9 0.0
04/05:30pm 23.8 19.3 15.3 59 5.1 SSE 33 39 18 21 1013.6 - 0.0
04/05:00pm 24.3 19.6 14.9 55 5.6 SSE 33 39 18 21 1013.2 - 0.0
04/04:30pm 24.7 20.2 15.0 54 5.8 SSE 32 39 17 21 1013.1 - 0.0
04/04:00pm 24.9 20.7 15.7 56 5.6 SSE 32 35 17 19 1012.9 - 0.0
04/03:30pm 25.3 21.7 16.3 57 5.5 SSE 30 35 16 19 1013.0 - 0.0
04/03:00pm 25.5 22.8 16.6 58 5.5 SSE 26 32 14 17 1013.1 1013.1 0.0
04/02:30pm 26.2 24.0 17.0 57 5.7 SSE 24 28 13 15 1013.3 - 0.0
04/02:00pm 26.3 24.4 17.7 59 5.4 SSE 24 28 13 15 1013.7 - 0.0
04/01:30pm 26.3 24.5 17.9 60 5.3 SSE 24 28 13 15 1014.0 - 0.0
04/01:00pm 26.2 24.4 17.8 60 5.3 SSE 24 32 13 17 1014.4 - 0.0
04/12:30pm 26.4 24.4 17.5 58 5.6 SE 24 30 13 16 1014.9 - 0.0
04/12:00pm 26.8 25.6 18.5 60 5.3 SE 22 26 12 14 1015.1 1015.1 0.0
04/11:30am 26.5 24.8 18.1 60 5.3 SE 24 28 13 15 1015.4 - 0.0
04/11:00am 26.3 24.8 18.6 62 4.9 ESE 24 32 13 17 1015.9 - 0.0
04/10:30am 25.6 23.6 18.2 63 4.7 SE 26 30 14 16 1016.1 - 0.0
04/10:00am 25.7 23.5 18.6 65 4.5 SE 28 32 15 17 1016.4 - 0.0
04/09:30am 25.0 22.5 18.9 69 3.9 SE 30 33 16 18 1016.4 - 0.0
04/09:00am 24.9 22.4 18.8 69 3.9 SE 30 33 16 18 1016.2 1016.2 0.0
04/08:30am 24.9 22.1 18.2 66 4.2 SE 30 33 16 18 1016.0 - 0.0
04/08:00am 24.0 20.9 18.4 71 3.5 SE 32 35 17 19 1015.7 - 0.0
04/07:30am 23.7 20.6 18.8 74 3.1 SE 33 39 18 21 1015.3 - 0.0
04/07:00am 23.7 20.1 18.6 73 3.2 SE 35 39 19 21 1015.1 - 0.0
04/06:30am 23.7 20.4 18.3 71 3.4 SE 33 39 18 21 1014.8 - 0.0
04/06:00am 23.7 20.3 18.1 71 3.5 SE 33 39 18 21 1014.8 1014.8 0.0
04/05:30am 23.7 20.5 18.5 72 3.3 SE 33 41 18 22 1014.5 - 0.0
04/05:00am 23.8 20.8 18.6 72 3.3 SE 32 35 17 19 1014.4 - 0.0
04/04:30am 23.6 20.5 17.5 68 3.8 SE 30 33 16 18 1014.2 - 0.0
04/04:00am 23.6 20.4 17.3 67 3.9 SE 30 33 16 18 1014.2 - 0.0
04/03:30am 23.7 20.6 17.4 68 3.9 SSE 30 35 16 19 1014.4 - 0.0
04/03:00am 23.3 20.4 17.1 68 3.8 ESE 28 37 15 20 1014.5 1014.5 0.0
04/02:30am 22.2 19.5 19.7 86 1.6 ESE 33 39 18 21 1014.8 - 0.0
04/02:00am 22.0 18.9 18.8 82 2.0 SE 33 39 18 21 1015.2 - 0.0
04/01:30am 22.2 20.1 19.0 82 2.0 SSE 28 37 15 20 1015.4 - 0.0
04/01:00am 23.0 20.8 18.7 77 2.7 SE 28 33 15 18 1015.7 - 0.0
04/12:30am 23.5 19.7 18.1 71 3.4 SE 35 41 19 22 1015.8 - 0.0
04/12:00am 23.0 20.8 18.7 77 2.7 ESE 28 33 15 18 1016.1 1016.1 0.0
 
Date/Time
EST
Temp
°C
App
Temp
°C
Dew
Point
Rel
Hum
%
Delta-T
°C
Wind Press
QNH
hPa
Press
MSL
hPa
Rain
since 9 am
mm
Dir
 
Spd
km/h
Gust
km/h
Spd
kts
Gust
kts
03/11:30pm 22.7 19.0 19.1 80 2.3 ESE 37 43 20 23 1016.2 - 0.0
03/11:00pm 22.9 19.9 19.1 79 2.4 ESE 33 39 18 21 1016.3 - 0.0
03/10:30pm 23.0 18.8 18.9 78 2.6 SE 39 46 21 25 1016.3 - 0.0
03/10:00pm 23.3 19.9 19.0 77 2.7 SE 35 39 19 21 1016.3 - 0.0
03/09:30pm 23.4 19.6 19.7 80 2.4 ESE 39 44 21 24 1016.4 - 0.0
03/09:00pm 23.9 21.1 18.3 71 3.5 SSE 30 35 16 19 1016.3 1016.3 0.0
03/08:30pm 24.0 20.9 18.4 71 3.5 SE 32 35 17 19 1016.3 - 0.0
03/08:00pm 24.1 21.3 18.2 69 3.7 SE 30 33 16 18 1016.1 - 0.0
03/07:30pm 24.0 21.8 18.8 72 3.3 SSE 28 30 15 16 1015.9 - 0.0
03/07:00pm 23.7 22.5 20.0 80 2.4 SSE 26 32 14 17 1015.7 - 0.0
03/06:30pm 23.4 21.3 19.0 76 2.8 SSE 28 33 15 18 1015.7 - 0.0
03/06:00pm 22.9 21.6 19.8 83 2.0 SSE 26 32 14 17 1015.5 1015.5 0.0
03/05:30pm 22.5 21.4 19.5 83 1.9 SSE 24 28 13 15 1015.3 - 0.0
03/05:00pm 22.4 20.1 19.4 83 1.9 SE 30 35 16 19 1015.3 - 0.0
03/04:30pm 22.3 21.6 19.5 84 1.8 SE 22 28 12 15 1015.2 - 0.0
03/04:00pm 22.2 22.2 20.2 88 1.3 SSE 20 28 11 15 1015.2 - 0.0
03/03:30pm 22.8 22.9 20.3 86 1.6 SSE 20 24 11 13 1015.2 - 0.0
03/03:00pm 22.4 21.7 20.2 87 1.4 SSE 24 28 13 15 1015.3 1015.3 0.0
03/02:30pm 21.9 21.0 19.9 88 1.3 SSE 24 28 13 15 1015.5 - 0.0
03/02:00pm 21.6 21.1 20.0 91 1.0 SE 22 26 12 14 1015.9 - 0.0
03/01:30pm 23.2 19.8 19.1 78 2.6 ESE 35 44 19 24 1016.1 - 0.0
03/01:00pm 23.5 20.9 19.8 80 2.4 ESE 33 41 18 22 1016.3 - 0.0
03/12:30pm 25.2 22.6 19.9 72 3.4 ESE 33 39 18 21 1016.6 - 0.0
03/12:00pm 24.5 22.1 20.3 77 2.7 ESE 33 39 18 21 1016.9 1016.9 0.0
03/11:30am 25.0 23.2 18.7 68 4.0 ESE 26 30 14 16 1017.2 - 0.0
03/11:00am 24.7 23.5 18.4 68 4.0 SE 22 30 12 16 1017.3 - 0.0
03/10:30am 24.4 23.0 19.7 75 3.0 SSE 26 30 14 16 1017.5 - 0.0
03/10:00am 24.7 23.3 18.9 70 3.7 SSE 24 32 13 17 1017.7 - 0.0
03/09:30am 25.2 23.7 19.4 70 3.7 SSE 26 32 14 17 1018.0 - 0.0
03/09:00am 24.1 24.4 18.7 72 3.4 SSE 15 17 8 9 1018.1 1018.1 0.0
03/08:30am 22.7 20.8 18.6 77 2.6 S 26 30 14 16 1018.3 - 0.0
03/08:00am 23.0 19.7 17.9 73 3.2 SSE 32 39 17 21 1017.7 - 0.0
03/07:30am 23.1 19.4 16.9 68 3.8 SE 32 39 17 21 1017.3 - 0.0
03/07:00am 23.3 19.3 16.2 64 4.3 SE 32 39 17 21 1017.2 - 0.0
03/06:51am 23.1 18.9 15.6 62 4.5 SE 32 39 17 21 1017.2 - 0.0
03/06:41am 23.6 18.6 16.0 62 4.6 ESE 37 56 20 30 1017.1 - 0.0
03/06:30am 23.5 17.7 17.0 67 4.0 ESE 43 52 23 28 1016.8 - 0.0
03/06:00am 23.6 19.8 18.9 75 3.0 ESE 37 46 20 25 1016.5 1016.5 0.0
03/05:30am 23.8 19.2 17.0 65 4.2 ESE 37 43 20 23 1016.3 - 0.0
03/05:00am 24.0 18.7 17.2 65 4.2 ESE 41 46 22 25 1015.9 - 0.0
03/04:30am 24.0 19.7 17.9 68 3.8 ESE 37 43 20 23 1015.9 - 0.0
03/04:00am 24.1 19.7 18.4 70 3.6 ESE 39 44 21 24 1015.9 - 0.0
03/03:30am 24.0 20.8 18.6 72 3.4 ESE 33 39 18 21 1015.9 - 0.0
03/03:00am 23.9 21.0 18.9 73 3.2 SE 32 37 17 20 1016.1 1016.1 0.0
03/02:30am 23.8 21.0 19.1 75 3.0 ESE 32 35 17 19 1016.3 - 0.0
03/02:00am 23.4 20.9 19.7 80 2.4 SE 32 37 17 20 1016.6 - 0.0
03/01:30am 23.0 20.0 19.9 83 2.0 SE 35 41 19 22 1016.9 - 0.0
03/01:00am 23.8 21.2 19.8 78 2.6 SE 33 39 18 21 1017.1 - 0.0
03/12:30am 23.6 20.3 19.2 76 2.8 SE 35 41 19 22 1017.3 - 0.0
03/12:00am 23.8 20.4 18.9 74 3.1 SE 35 41 19 22 1017.5 1017.5 0.0
 
Date/Time
EST
Temp
°C
App
Temp
°C
Dew
Point
Rel
Hum
%
Delta-T
°C
Wind Press
QNH
hPa
Press
MSL
hPa
Rain
since 9 am
mm
Dir
 
Spd
km/h
Gust
km/h
Spd
kts
Gust
kts
02/11:30pm 23.8 21.0 19.4 76 2.8 SE 33 39 18 21 1017.6 - 0.0
02/11:00pm 23.8 20.6 18.7 73 3.2 SE 33 39 18 21 1017.8 - 0.0
02/10:30pm 23.7 20.5 18.6 73 3.2 SSE 33 41 18 22 1017.8 - 0.0
02/10:00pm 23.7 20.2 18.8 74 3.1 SE 35 41 19 22 1017.9 - 0.0
02/09:30pm 23.7 20.6 18.8 74 3.1 SE 33 39 18 21 1017.9 - 0.0
02/09:00pm 23.5 21.2 19.3 77 2.7 SE 30 35 16 19 1017.6 1017.6 0.0
02/08:30pm 23.8 21.1 19.6 77 2.7 SSE 33 39 18 21 1017.6 - 0.0
02/08:00pm 23.5 19.8 19.1 76 2.8 SSE 37 44 20 24 1017.3 - 0.0
02/07:30pm 23.6 20.0 19.4 77 2.7 SSE 37 43 20 23 1017.1 - 0.0
02/07:00pm 23.8 20.9 18.9 74 3.1 SE 32 39 17 21 1016.9 - 0.0
02/06:30pm 23.9 20.8 19.7 77 2.7 SSE 35 41 19 22 1016.7 - 0.0
02/06:00pm 24.1 21.0 18.9 72 3.3 SSE 33 37 18 20 1016.4 1016.4 0.0
02/05:30pm 24.2 21.1 18.3 69 3.7 SE 32 39 17 21 1016.3 - 0.0
02/05:00pm 24.6 21.6 17.7 65 4.3 SE 30 35 16 19 1016.3 - 0.0
02/04:30pm 25.2 22.2 16.8 59 5.2 SE 28 32 15 17 1016.1 - 0.0
02/04:00pm 25.4 22.6 17.2 60 5.1 SE 28 33 15 18 1016.1 - 0.0
02/03:30pm 25.9 22.9 16.9 57 5.6 SE 28 33 15 18 1016.2 - 0.0
02/03:00pm 26.0 23.4 16.8 57 5.7 SE 26 32 14 17 1016.1 1016.1 0.0
02/02:30pm 26.6 24.1 17.1 56 5.9 SE 26 30 14 16 1016.2 - 0.0
02/02:00pm 26.4 23.4 16.9 56 5.9 ESE 28 33 15 18 1016.5 - 0.0
02/01:30pm 26.4 23.0 16.7 55 6.0 ESE 30 35 16 19 1016.9 - 0.0
02/01:00pm 26.3 22.5 16.8 56 5.9 ESE 32 37 17 20 1017.2 - 0.0

Other Formats:

Comma delimited format used in spreadsheet applications
http://www.bom.gov.au/fwo/IDQ60801/IDQ60801.94299.axf

JavaScript Object Notation format (JSON) in row-major order
http://www.bom.gov.au/fwo/IDQ60801/IDQ60801.94299.json